sensor_id;sensor_type;location;lat;lon;timestamp;pressure;altitude;pressure_sealevel;temperature;humidity
10638;BME280;47007;49.252;8.904;2022-07-04T00:01:42;100017.28;;;21.04;100.00
10638;BME280;47007;49.252;8.904;2022-07-04T00:04:09;99990.69;;;21.08;100.00
10638;BME280;47007;49.252;8.904;2022-07-04T00:06:36;99986.03;;;21.03;100.00
10638;BME280;47007;49.252;8.904;2022-07-04T00:09:03;99987.91;;;21.03;100.00
10638;BME280;47007;49.252;8.904;2022-07-04T00:11:30;99990.53;;;20.98;100.00
10638;BME280;47007;49.252;8.904;2022-07-04T00:13:56;99999.81;;;21.07;100.00
10638;BME280;47007;49.252;8.904;2022-07-04T00:16:23;99996.25;;;21.01;100.00
10638;BME280;47007;49.252;8.904;2022-07-04T00:18:50;99984.91;;;20.99;100.00
10638;BME280;47007;49.252;8.904;2022-07-04T00:21:16;100006.75;;;21.03;100.00
10638;BME280;47007;49.252;8.904;2022-07-04T00:23:43;99997.84;;;21.02;100.00
10638;BME280;47007;49.252;8.904;2022-07-04T00:26:10;99991.09;;;21.00;100.00
10638;BME280;47007;49.252;8.904;2022-07-04T00:28:37;99987.44;;;20.89;100.00
10638;BME280;47007;49.252;8.904;2022-07-04T00:31:03;99986.72;;;20.77;100.00
10638;BME280;47007;49.252;8.904;2022-07-04T00:33:30;99989.00;;;20.68;100.00
10638;BME280;47007;49.252;8.904;2022-07-04T00:35:57;99994.22;;;20.58;100.00
10638;BME280;47007;49.252;8.904;2022-07-04T00:38:23;99975.53;;;20.52;100.00
10638;BME280;47007;49.252;8.904;2022-07-04T00:40:51;99988.66;;;20.65;100.00
10638;BME280;47007;49.252;8.904;2022-07-04T00:43:25;99989.22;;;20.67;100.00
10638;BME280;47007;49.252;8.904;2022-07-04T00:45:53;99994.13;;;20.70;100.00
10638;BME280;47007;49.252;8.904;2022-07-04T00:48:20;100005.06;;;20.47;100.00
10638;BME280;47007;49.252;8.904;2022-07-04T00:50:47;99963.56;;;20.14;100.00
10638;BME280;47007;49.252;8.904;2022-07-04T00:53:14;100003.47;;;20.34;100.00
10638;BME280;47007;49.252;8.904;2022-07-04T00:55:42;99984.34;;;20.19;100.00
10638;BME280;47007;49.252;8.904;2022-07-04T00:58:09;100002.00;;;20.26;100.00
10638;BME280;47007;49.252;8.904;2022-07-04T01:00:36;100013.00;;;20.25;100.00
10638;BME280;47007;49.252;8.904;2022-07-04T01:03:03;100022.47;;;20.27;100.00
10638;BME280;47007;49.252;8.904;2022-07-04T01:05:29;100011.69;;;20.27;100.00
10638;BME280;47007;49.252;8.904;2022-07-04T01:07:56;100022.69;;;20.37;100.00
10638;BME280;47007;49.252;8.904;2022-07-04T01:10:23;100014.84;;;20.36;100.00
10638;BME280;47007;49.252;8.904;2022-07-04T01:12:50;100020.09;;;20.31;100.00
10638;BME280;47007;49.252;8.904;2022-07-04T01:15:16;100023.25;;;20.28;100.00
10638;BME280;47007;49.252;8.904;2022-07-04T01:17:43;100027.56;;;20.12;100.00
10638;BME280;47007;49.252;8.904;2022-07-04T01:20:12;100018.97;;;19.98;100.00
10638;BME280;47007;49.252;8.904;2022-07-04T01:22:39;100021.06;;;19.96;100.00
10638;BME280;47007;49.252;8.904;2022-07-04T01:25:06;100020.72;;;19.93;100.00
10638;BME280;47007;49.252;8.904;2022-07-04T01:27:33;100016.31;;;19.87;100.00
10638;BME280;47007;49.252;8.904;2022-07-04T01:30:00;100020.88;;;19.86;100.00
10638;BME280;47007;49.252;8.904;2022-07-04T01:32:27;100009.22;;;19.69;100.00
10638;BME280;47007;49.252;8.904;2022-07-04T01:34:54;100014.97;;;19.61;100.00
10638;BME280;47007;49.252;8.904;2022-07-04T01:37:21;100019.75;;;19.47;100.00
10638;BME280;47007;49.252;8.904;2022-07-04T01:39:47;99989.88;;;19.20;100.00
10638;BME280;47007;49.252;8.904;2022-07-04T01:42:14;99994.09;;;19.16;100.00
10638;BME280;47007;49.252;8.904;2022-07-04T01:44:41;100019.41;;;19.32;100.00
10638;BME280;47007;49.252;8.904;2022-07-04T01:47:07;99988.47;;;19.18;100.00
10638;BME280;47007;49.252;8.904;2022-07-04T01:49:34;99940.63;;;18.91;100.00
10638;BME280;47007;49.252;8.904;2022-07-04T01:52:02;100001.88;;;19.41;100.00
10638;BME280;47007;49.252;8.904;2022-07-04T01:54:28;100026.09;;;19.53;100.00
10638;BME280;47007;49.252;8.904;2022-07-04T01:56:55;100008.81;;;19.49;100.00
10638;BME280;47007;49.252;8.904;2022-07-04T01:59:21;100031.22;;;19.54;100.00
10638;BME280;47007;49.252;8.904;2022-07-04T02:02:08;100004.72;;;19.23;100.00
10638;BME280;47007;49.252;8.904;2022-07-04T02:04:36;100032.16;;;19.36;100.00
10638;BME280;47007;49.252;8.904;2022-07-04T02:07:03;99987.66;;;19.06;100.00
10638;BME280;47007;49.252;8.904;2022-07-04T02:09:30;100033.09;;;19.30;100.00
10638;BME280;47007;49.252;8.904;2022-07-04T02:11:57;100043.38;;;19.33;100.00
10638;BME280;47007;49.252;8.904;2022-07-04T02:14:42;100042.69;;;19.26;100.00
10638;BME280;47007;49.252;8.904;2022-07-04T02:17:11;100008.69;;;19.09;100.00
10638;BME280;47007;49.252;8.904;2022-07-04T02:19:37;100041.16;;;19.30;100.00
10638;BME280;47007;49.252;8.904;2022-07-04T02:22:04;100025.97;;;19.24;100.00
10638;BME280;47007;49.252;8.904;2022-07-04T02:24:31;100051.66;;;19.32;100.00
10638;BME280;47007;49.252;8.904;2022-07-04T02:26:58;100058.59;;;19.28;100.00
10638;BME280;47007;49.252;8.904;2022-07-04T02:29:24;100056.34;;;19.25;100.00
10638;BME280;47007;49.252;8.904;2022-07-04T02:31:51;100066.75;;;19.21;100.00
10638;BME280;47007;49.252;8.904;2022-07-04T02:34:18;100061.97;;;19.12;100.00
10638;BME280;47007;49.252;8.904;2022-07-04T02:36:45;100031.00;;;18.86;100.00
10638;BME280;47007;49.252;8.904;2022-07-04T02:39:12;100059.84;;;19.02;100.00
10638;BME280;47007;49.252;8.904;2022-07-04T02:41:38;100069.28;;;18.93;100.00
10638;BME280;47007;49.252;8.904;2022-07-04T02:44:05;100045.31;;;18.68;100.00
10638;BME280;47007;49.252;8.904;2022-07-04T02:46:32;100071.63;;;18.78;100.00
10638;BME280;47007;49.252;8.904;2022-07-04T02:49:00;100068.59;;;18.56;100.00
10638;BME280;47007;49.252;8.904;2022-07-04T02:51:27;100087.09;;;18.64;100.00
10638;BME280;47007;49.252;8.904;2022-07-04T02:53:54;100073.47;;;18.65;100.00
10638;BME280;47007;49.252;8.904;2022-07-04T02:56:21;99993.97;;;18.35;100.00
10638;BME280;47007;49.252;8.904;2022-07-04T02:58:48;100073.03;;;18.92;100.00
10638;BME280;47007;49.252;8.904;2022-07-04T03:01:15;100058.31;;;18.83;100.00
10638;BME280;47007;49.252;8.904;2022-07-04T03:03:42;100075.44;;;18.70;100.00
10638;BME280;47007;49.252;8.904;2022-07-04T03:06:10;100071.63;;;18.48;100.00
10638;BME280;47007;49.252;8.904;2022-07-04T03:08:36;100082.09;;;18.38;100.00
10638;BME280;47007;49.252;8.904;2022-07-04T03:11:04;100080.78;;;18.28;100.00
10638;BME280;47007;49.252;8.904;2022-07-04T03:13:31;100082.69;;;18.40;100.00
10638;BME280;47007;49.252;8.904;2022-07-04T03:15:58;100079.28;;;18.44;100.00
10638;BME280;47007;49.252;8.904;2022-07-04T03:18:25;100093.16;;;18.29;100.00
10638;BME280;47007;49.252;8.904;2022-07-04T03:20:51;100098.72;;;18.28;100.00
10638;BME280;47007;49.252;8.904;2022-07-04T03:23:18;100107.72;;;18.34;100.00
10638;BME280;47007;49.252;8.904;2022-07-04T03:25:45;100109.38;;;18.35;100.00
10638;BME280;47007;49.252;8.904;2022-07-04T03:28:11;100101.75;;;18.31;100.00
10638;BME280;47007;49.252;8.904;2022-07-04T03:30:38;100095.13;;;18.34;100.00
10638;BME280;47007;49.252;8.904;2022-07-04T03:33:05;100076.94;;;18.36;100.00
10638;BME280;47007;49.252;8.904;2022-07-04T03:35:32;100093.38;;;18.58;100.00
10638;BME280;47007;49.252;8.904;2022-07-04T03:37:58;100085.41;;;18.51;100.00
10638;BME280;47007;49.252;8.904;2022-07-04T03:40:25;100066.38;;;18.23;100.00
10638;BME280;47007;49.252;8.904;2022-07-04T03:42:55;100102.34;;;18.34;100.00
10638;BME280;47007;49.252;8.904;2022-07-04T03:45:22;100101.91;;;18.37;100.00
10638;BME280;47007;49.252;8.904;2022-07-04T03:47:49;100109.38;;;18.35;100.00
10638;BME280;47007;49.252;8.904;2022-07-04T03:50:15;100080.34;;;18.13;100.00
10638;BME280;47007;49.252;8.904;2022-07-04T03:52:42;100097.47;;;18.12;100.00
10638;BME280;47007;49.252;8.904;2022-07-04T03:55:09;100087.94;;;18.16;100.00
10638;BME280;47007;49.252;8.904;2022-07-04T03:57:36;100121.16;;;18.34;100.00
10638;BME280;47007;49.252;8.904;2022-07-04T04:00:03;100119.50;;;18.33;100.00
10638;BME280;47007;49.252;8.904;2022-07-04T04:02:38;100078.09;;;18.10;100.00
10638;BME280;47007;49.252;8.904;2022-07-04T04:05:12;100119.00;;;18.24;100.00
10638;BME280;47007;49.252;8.904;2022-07-04T04:07:59;100126.22;;;18.05;100.00
10638;BME280;47007;49.252;8.904;2022-07-04T04:10:28;100125.94;;;18.13;100.00
10638;BME280;47007;49.252;8.904;2022-07-04T04:12:55;100126.78;;;18.14;100.00
10638;BME280;47007;49.252;8.904;2022-07-04T04:15:21;100118.28;;;18.17;100.00
10638;BME280;47007;49.252;8.904;2022-07-04T04:17:48;100136.31;;;18.10;100.00
10638;BME280;47007;49.252;8.904;2022-07-04T04:20:15;100127.81;;;17.94;100.00
10638;BME280;47007;49.252;8.904;2022-07-04T04:22:41;100106.16;;;17.78;100.00
10638;BME280;47007;49.252;8.904;2022-07-04T04:25:08;100131.44;;;17.82;100.00
10638;BME280;47007;49.252;8.904;2022-07-04T04:27:35;100139.41;;;17.70;100.00
10638;BME280;47007;49.252;8.904;2022-07-04T04:30:03;100145.25;;;17.60;100.00
10638;BME280;47007;49.252;8.904;2022-07-04T04:32:30;100149.25;;;17.76;100.00
10638;BME280;47007;49.252;8.904;2022-07-04T04:34:57;100039.88;;;17.23;100.00
10638;BME280;47007;49.252;8.904;2022-07-04T04:37:24;100137.28;;;17.97;100.00
10638;BME280;47007;49.252;8.904;2022-07-04T04:39:50;100159.19;;;18.12;100.00
10638;BME280;47007;49.252;8.904;2022-07-04T04:42:17;100166.56;;;18.17;100.00
10638;BME280;47007;49.252;8.904;2022-07-04T04:44:44;100154.09;;;18.22;100.00
10638;BME280;47007;49.252;8.904;2022-07-04T04:47:11;100152.53;;;18.33;100.00
10638;BME280;47007;49.252;8.904;2022-07-04T04:49:38;100141.19;;;18.31;100.00
10638;BME280;47007;49.252;8.904;2022-07-04T04:52:05;100160.50;;;18.40;100.00
10638;BME280;47007;49.252;8.904;2022-07-04T04:54:33;100162.28;;;18.46;100.00
10638;BME280;47007;49.252;8.904;2022-07-04T04:57:00;100065.56;;;17.92;100.00
10638;BME280;47007;49.252;8.904;2022-07-04T04:59:28;100150.44;;;18.53;100.00
10638;BME280;47007;49.252;8.904;2022-07-04T05:01:59;100158.00;;;18.56;100.00
10638;BME280;47007;49.252;8.904;2022-07-04T05:04:26;100154.13;;;18.71;100.00
10638;BME280;47007;49.252;8.904;2022-07-04T05:06:52;100154.78;;;18.96;100.00
10638;BME280;47007;49.252;8.904;2022-07-04T05:09:20;100150.75;;;19.17;100.00
10638;BME280;47007;49.252;8.904;2022-07-04T05:11:47;100149.59;;;19.13;100.00
10638;BME280;47007;49.252;8.904;2022-07-04T05:14:14;100170.25;;;19.77;100.00
10638;BME280;47007;49.252;8.904;2022-07-04T05:16:41;100163.00;;;19.78;100.00
10638;BME280;47007;49.252;8.904;2022-07-04T05:19:08;100176.22;;;20.31;100.00
10638;BME280;47007;49.252;8.904;2022-07-04T05:21:35;100180.84;;;20.59;100.00
10638;BME280;47007;49.252;8.904;2022-07-04T05:24:01;100183.66;;;20.64;100.00
10638;BME280;47007;49.252;8.904;2022-07-04T05:26:28;100185.50;;;20.75;100.00
10638;BME280;47007;49.252;8.904;2022-07-04T05:28:55;100182.31;;;20.50;100.00
10638;BME280;47007;49.252;8.904;2022-07-04T05:31:23;100169.34;;;20.92;100.00
10638;BME280;47007;49.252;8.904;2022-07-04T05:33:52;100196.31;;;21.54;100.00
10638;BME280;47007;49.252;8.904;2022-07-04T05:36:22;100179.63;;;21.73;100.00
10638;BME280;47007;49.252;8.904;2022-07-04T05:38:55;100184.94;;;21.68;100.00
10638;BME280;47007;49.252;8.904;2022-07-04T05:41:21;100203.72;;;21.30;100.00
10638;BME280;47007;49.252;8.904;2022-07-04T05:43:48;100212.75;;;20.78;100.00
10638;BME280;47007;49.252;8.904;2022-07-04T05:46:20;100203.38;;;20.81;100.00
10638;BME280;47007;49.252;8.904;2022-07-04T05:48:47;100197.38;;;20.62;100.00
10638;BME280;47007;49.252;8.904;2022-07-04T05:51:14;100181.59;;;20.42;100.00
10638;BME280;47007;49.252;8.904;2022-07-04T05:53:41;100204.56;;;20.45;100.00
10638;BME280;47007;49.252;8.904;2022-07-04T05:56:07;100179.88;;;20.25;100.00
10638;BME280;47007;49.252;8.904;2022-07-04T05:58:34;100214.50;;;20.44;100.00
10638;BME280;47007;49.252;8.904;2022-07-04T06:01:01;100209.03;;;20.39;100.00
10638;BME280;47007;49.252;8.904;2022-07-04T06:03:27;100141.91;;;19.98;100.00
10638;BME280;47007;49.252;8.904;2022-07-04T06:05:57;100190.84;;;20.35;100.00
10638;BME280;47007;49.252;8.904;2022-07-04T06:08:24;100205.63;;;20.72;100.00
10638;BME280;47007;49.252;8.904;2022-07-04T06:10:50;100206.47;;;21.01;100.00
10638;BME280;47007;49.252;8.904;2022-07-04T06:13:17;100162.63;;;20.77;100.00
10638;BME280;47007;49.252;8.904;2022-07-04T06:15:44;100207.13;;;21.08;100.00
10638;BME280;47007;49.252;8.904;2022-07-04T06:18:10;100186.56;;;20.91;100.00
10638;BME280;47007;49.252;8.904;2022-07-04T06:20:38;100195.75;;;21.06;100.00
10638;BME280;47007;49.252;8.904;2022-07-04T06:23:08;100209.41;;;21.16;100.00
10638;BME280;47007;49.252;8.904;2022-07-04T06:25:35;100192.31;;;21.23;100.00
10638;BME280;47007;49.252;8.904;2022-07-04T06:28:02;100230.78;;;21.35;100.00
10638;BME280;47007;49.252;8.904;2022-07-04T06:30:29;100209.69;;;21.32;100.00
10638;BME280;47007;49.252;8.904;2022-07-04T06:32:56;100203.50;;;21.31;100.00
10638;BME280;47007;49.252;8.904;2022-07-04T06:35:25;100213.81;;;21.34;100.00
10638;BME280;47007;49.252;8.904;2022-07-04T06:38:19;100204.97;;;21.39;100.00
10638;BME280;47007;49.252;8.904;2022-07-04T06:40:56;100198.59;;;21.45;100.00
10638;BME280;47007;49.252;8.904;2022-07-04T06:43:24;100213.88;;;21.56;100.00
10638;BME280;47007;49.252;8.904;2022-07-04T06:45:52;100205.94;;;21.66;100.00
10638;BME280;47007;49.252;8.904;2022-07-04T06:48:19;100210.69;;;21.76;100.00
10638;BME280;47007;49.252;8.904;2022-07-04T06:50:45;100207.56;;;21.84;100.00
10638;BME280;47007;49.252;8.904;2022-07-04T06:53:12;100205.50;;;21.91;100.00
10638;BME280;47007;49.252;8.904;2022-07-04T06:55:41;100206.41;;;21.97;100.00
10638;BME280;47007;49.252;8.904;2022-07-04T06:58:09;100200.94;;;22.08;100.00
10638;BME280;47007;49.252;8.904;2022-07-04T07:00:35;100194.66;;;22.46;100.00
10638;BME280;47007;49.252;8.904;2022-07-04T07:03:03;100190.69;;;22.76;100.00
10638;BME280;47007;49.252;8.904;2022-07-04T07:05:31;100155.25;;;22.72;100.00
10638;BME280;47007;49.252;8.904;2022-07-04T07:08:17;100201.53;;;23.03;100.00
10638;BME280;47007;49.252;8.904;2022-07-04T07:10:44;100180.91;;;23.23;100.00
10638;BME280;47007;49.252;8.904;2022-07-04T07:13:11;100154.94;;;23.22;100.00
10638;BME280;47007;49.252;8.904;2022-07-04T07:15:37;100181.44;;;23.25;100.00
10638;BME280;47007;49.252;8.904;2022-07-04T07:18:05;100160.47;;;23.06;100.00
10638;BME280;47007;49.252;8.904;2022-07-04T07:20:32;100140.53;;;22.85;100.00
10638;BME280;47007;49.252;8.904;2022-07-04T07:23:02;100160.03;;;23.19;100.00
10638;BME280;47007;49.252;8.904;2022-07-04T07:25:29;100135.25;;;23.00;100.00
10638;BME280;47007;49.252;8.904;2022-07-04T07:27:56;100160.81;;;23.46;100.00
10638;BME280;47007;49.252;8.904;2022-07-04T07:30:23;100156.91;;;23.69;100.00
10638;BME280;47007;49.252;8.904;2022-07-04T07:32:50;100148.13;;;23.94;97.42
10638;BME280;47007;49.252;8.904;2022-07-04T07:35:17;100119.44;;;23.93;94.98
10638;BME280;47007;49.252;8.904;2022-07-04T07:37:43;100151.75;;;24.15;92.08
10638;BME280;47007;49.252;8.904;2022-07-04T07:40:10;100146.00;;;24.01;96.37
10638;BME280;47007;49.252;8.904;2022-07-04T07:42:37;100146.53;;;24.03;91.84
10638;BME280;47007;49.252;8.904;2022-07-04T07:45:04;100150.84;;;23.99;93.18
10638;BME280;47007;49.252;8.904;2022-07-04T07:47:31;100123.81;;;24.04;93.73
10638;BME280;47007;49.252;8.904;2022-07-04T07:49:58;100145.47;;;24.77;91.38
10638;BME280;47007;49.252;8.904;2022-07-04T07:52:24;100150.94;;;25.22;88.99
10638;BME280;47007;49.252;8.904;2022-07-04T07:54:53;100148.78;;;25.55;85.50
10638;BME280;47007;49.252;8.904;2022-07-04T07:57:29;100137.91;;;25.55;83.37
10638;BME280;47007;49.252;8.904;2022-07-04T07:59:56;100114.59;;;25.38;80.27
10638;BME280;47007;49.252;8.904;2022-07-04T08:02:23;100115.13;;;25.46;81.24
10638;BME280;47007;49.252;8.904;2022-07-04T08:05:12;100129.47;;;25.82;80.63
10638;BME280;47007;49.252;8.904;2022-07-04T08:07:39;100137.31;;;25.88;81.72
10638;BME280;47007;49.252;8.904;2022-07-04T08:10:06;100115.09;;;25.76;79.14
10638;BME280;47007;49.252;8.904;2022-07-04T08:12:34;100119.38;;;25.92;77.55
10638;BME280;47007;49.252;8.904;2022-07-04T08:15:00;100140.16;;;26.27;77.93
10638;BME280;47007;49.252;8.904;2022-07-04T08:17:33;100121.84;;;26.48;71.29
10638;BME280;47007;49.252;8.904;2022-07-04T08:20:01;100109.56;;;26.01;71.95
10638;BME280;47007;49.252;8.904;2022-07-04T08:22:27;100086.19;;;26.05;71.46
10638;BME280;47007;49.252;8.904;2022-07-04T08:24:54;100096.09;;;26.35;72.81
10638;BME280;47007;49.252;8.904;2022-07-04T08:27:21;100082.53;;;26.74;72.68
10638;BME280;47007;49.252;8.904;2022-07-04T08:29:59;100098.28;;;27.16;66.22
10638;BME280;47007;49.252;8.904;2022-07-04T08:32:26;100098.00;;;27.18;65.91
10638;BME280;47007;49.252;8.904;2022-07-04T08:34:53;100077.59;;;26.81;64.52
10638;BME280;47007;49.252;8.904;2022-07-04T08:37:21;100096.97;;;27.09;66.08
10638;BME280;47007;49.252;8.904;2022-07-04T08:39:48;100066.97;;;27.19;61.70
10638;BME280;47007;49.252;8.904;2022-07-04T08:42:19;100007.56;;;26.24;62.32
10638;BME280;47007;49.252;8.904;2022-07-04T08:44:51;100089.84;;;26.79;66.17
10638;BME280;47007;49.252;8.904;2022-07-04T08:47:20;100087.25;;;27.03;63.40
10638;BME280;47007;49.252;8.904;2022-07-04T08:50:08;100087.13;;;26.79;63.86
10638;BME280;47007;49.252;8.904;2022-07-04T08:52:41;100084.72;;;26.72;62.46
10638;BME280;47007;49.252;8.904;2022-07-04T08:55:10;100079.28;;;26.72;63.84
10638;BME280;47007;49.252;8.904;2022-07-04T08:57:56;100085.75;;;26.81;62.16
10638;BME280;47007;49.252;8.904;2022-07-04T09:00:42;100079.19;;;26.93;57.51
10638;BME280;47007;49.252;8.904;2022-07-04T09:03:10;100074.16;;;27.34;59.61
10638;BME280;47007;49.252;8.904;2022-07-04T09:05:37;100085.81;;;27.68;56.21
10638;BME280;47007;49.252;8.904;2022-07-04T09:08:06;100064.16;;;27.29;56.08
10638;BME280;47007;49.252;8.904;2022-07-04T09:10:33;100077.75;;;27.29;57.74
10638;BME280;47007;49.252;8.904;2022-07-04T09:13:05;100076.97;;;27.24;57.26
10638;BME280;47007;49.252;8.904;2022-07-04T09:15:40;100075.66;;;27.74;56.28
10638;BME280;47007;49.252;8.904;2022-07-04T09:18:19;100071.75;;;28.28;55.58
10638;BME280;47007;49.252;8.904;2022-07-04T09:20:45;100081.31;;;28.25;54.39
10638;BME280;47007;49.252;8.904;2022-07-04T09:23:21;100083.34;;;28.14;53.55
10638;BME280;47007;49.252;8.904;2022-07-04T09:26:05;100083.00;;;28.40;53.55
10638;BME280;47007;49.252;8.904;2022-07-04T09:28:32;100083.81;;;28.21;50.84
10638;BME280;47007;49.252;8.904;2022-07-04T09:31:00;100094.25;;;28.14;50.59
10638;BME280;47007;49.252;8.904;2022-07-04T09:33:53;100082.94;;;28.02;51.29
10638;BME280;47007;49.252;8.904;2022-07-04T09:36:31;100082.47;;;28.19;50.63
10638;BME280;47007;49.252;8.904;2022-07-04T09:39:17;100082.16;;;28.95;49.33
10638;BME280;47007;49.252;8.904;2022-07-04T09:44:44;100092.66;;;28.08;48.81
10638;BME280;47007;49.252;8.904;2022-07-04T09:47:28;100093.91;;;27.97;50.73
10638;BME280;47007;49.252;8.904;2022-07-04T09:50:02;100094.78;;;27.93;51.56
10638;BME280;47007;49.252;8.904;2022-07-04T09:52:29;100087.53;;;27.83;52.42
10638;BME280;47007;49.252;8.904;2022-07-04T09:55:01;100099.41;;;28.16;51.76
10638;BME280;47007;49.252;8.904;2022-07-04T09:57:34;100089.94;;;28.08;51.32
10638;BME280;47007;49.252;8.904;2022-07-04T10:00:24;100095.50;;;27.79;50.83
10638;BME280;47007;49.252;8.904;2022-07-04T10:02:52;100107.47;;;28.02;51.55
10638;BME280;47007;49.252;8.904;2022-07-04T10:05:28;100040.25;;;28.16;51.64
10638;BME280;47007;49.252;8.904;2022-07-04T10:07:57;100074.97;;;28.67;49.18
10638;BME280;47007;49.252;8.904;2022-07-04T10:10:29;100095.63;;;28.54;49.19
10638;BME280;47007;49.252;8.904;2022-07-04T10:15:28;100089.41;;;28.49;50.21
10638;BME280;47007;49.252;8.904;2022-07-04T10:17:55;100087.38;;;28.41;50.95
10638;BME280;47007;49.252;8.904;2022-07-04T10:20:21;100082.56;;;28.89;49.89
10638;BME280;47007;49.252;8.904;2022-07-04T10:22:48;100092.16;;;28.86;50.22
10638;BME280;47007;49.252;8.904;2022-07-04T10:25:15;100088.53;;;28.53;50.52
10638;BME280;47007;49.252;8.904;2022-07-04T10:27:42;100084.28;;;29.31;50.09
10638;BME280;47007;49.252;8.904;2022-07-04T10:30:13;100097.91;;;29.91;47.52
10638;BME280;47007;49.252;8.904;2022-07-04T10:32:41;100086.78;;;29.74;47.39
10638;BME280;47007;49.252;8.904;2022-07-04T10:35:12;100095.66;;;29.19;47.64
10638;BME280;47007;49.252;8.904;2022-07-04T10:38:04;100009.75;;;28.33;49.60
10638;BME280;47007;49.252;8.904;2022-07-04T10:40:42;100095.00;;;28.95;48.28
10638;BME280;47007;49.252;8.904;2022-07-04T10:43:36;100087.25;;;29.02;45.13
10638;BME280;47007;49.252;8.904;2022-07-04T10:49:19;100086.88;;;29.41;45.67
10638;BME280;47007;49.252;8.904;2022-07-04T10:52:07;100094.72;;;29.29;44.89
10638;BME280;47007;49.252;8.904;2022-07-04T10:54:38;100087.81;;;29.31;45.43
10638;BME280;47007;49.252;8.904;2022-07-04T10:57:22;100090.44;;;30.10;45.23
10638;BME280;47007;49.252;8.904;2022-07-04T11:02:28;100081.84;;;29.16;45.80
10638;BME280;47007;49.252;8.904;2022-07-04T11:05:09;100081.47;;;29.36;46.03
10638;BME280;47007;49.252;8.904;2022-07-04T11:18:11;100082.19;;;28.77;46.52
10638;BME280;47007;49.252;8.904;2022-07-04T11:20:43;100086.16;;;29.49;45.63
10638;BME280;47007;49.252;8.904;2022-07-04T11:23:11;100073.81;;;29.93;44.78
10638;BME280;47007;49.252;8.904;2022-07-04T11:25:39;100068.03;;;30.58;44.36
10638;BME280;47007;49.252;8.904;2022-07-04T11:28:31;100060.88;;;30.48;42.99
10638;BME280;47007;49.252;8.904;2022-07-04T11:31:12;100070.78;;;29.81;41.43
10638;BME280;47007;49.252;8.904;2022-07-04T11:33:41;100040.41;;;29.27;42.28
10638;BME280;47007;49.252;8.904;2022-07-04T11:36:13;100064.63;;;29.89;42.89
10638;BME280;47007;49.252;8.904;2022-07-04T11:41:22;100039.63;;;30.31;42.03
10638;BME280;47007;49.252;8.904;2022-07-04T11:44:10;100063.91;;;29.56;40.75
10638;BME280;47007;49.252;8.904;2022-07-04T11:47:10;100056.97;;;29.31;42.10
10638;BME280;47007;49.252;8.904;2022-07-04T11:49:55;100004.59;;;29.29;41.80
10638;BME280;47007;49.252;8.904;2022-07-04T11:52:24;100052.28;;;29.64;41.73
10638;BME280;47007;49.252;8.904;2022-07-04T11:55:14;100040.25;;;29.79;40.59
10638;BME280;47007;49.252;8.904;2022-07-04T11:57:42;100039.00;;;30.12;41.08
10638;BME280;47007;49.252;8.904;2022-07-04T12:00:15;100023.81;;;30.06;40.80
10638;BME280;47007;49.252;8.904;2022-07-04T12:02:44;100034.41;;;30.57;40.51
10638;BME280;47007;49.252;8.904;2022-07-04T12:05:13;99997.97;;;30.12;40.23
10638;BME280;47007;49.252;8.904;2022-07-04T12:07:45;100033.00;;;30.46;40.38
10638;BME280;47007;49.252;8.904;2022-07-04T12:10:32;100036.63;;;30.19;40.84
10638;BME280;47007;49.252;8.904;2022-07-04T12:15:41;100034.44;;;29.94;41.14
10638;BME280;47007;49.252;8.904;2022-07-04T12:18:23;100035.50;;;29.11;38.57
10638;BME280;47007;49.252;8.904;2022-07-04T12:20:52;100025.72;;;29.23;39.21
10638;BME280;47007;49.252;8.904;2022-07-04T12:23:21;100039.50;;;29.87;36.80
10638;BME280;47007;49.252;8.904;2022-07-04T12:25:51;100020.63;;;30.26;37.97
10638;BME280;47007;49.252;8.904;2022-07-04T12:28:19;100010.13;;;30.42;38.70
10638;BME280;47007;49.252;8.904;2022-07-04T12:30:51;100013.84;;;30.46;37.42
10638;BME280;47007;49.252;8.904;2022-07-04T12:33:20;100006.53;;;30.55;37.19
10638;BME280;47007;49.252;8.904;2022-07-04T12:35:49;100012.78;;;30.33;37.83
10638;BME280;47007;49.252;8.904;2022-07-04T12:40:59;100007.31;;;30.11;37.11
10638;BME280;47007;49.252;8.904;2022-07-04T12:43:44;99981.13;;;29.96;37.46
10638;BME280;47007;49.252;8.904;2022-07-04T12:46:31;99968.25;;;29.83;38.07
10638;BME280;47007;49.252;8.904;2022-07-04T12:49:05;99958.06;;;29.75;38.23
10638;BME280;47007;49.252;8.904;2022-07-04T12:51:33;99982.94;;;29.87;36.98
10638;BME280;47007;49.252;8.904;2022-07-04T12:54:09;99984.00;;;29.50;36.66
10638;BME280;47007;49.252;8.904;2022-07-04T12:56:46;99971.78;;;29.97;37.37
10638;BME280;47007;49.252;8.904;2022-07-04T12:59:16;99960.81;;;30.11;37.08
10638;BME280;47007;49.252;8.904;2022-07-04T13:01:47;99970.75;;;30.07;37.51
10638;BME280;47007;49.252;8.904;2022-07-04T13:04:14;99944.88;;;29.91;37.30
10638;BME280;47007;49.252;8.904;2022-07-04T13:06:42;99963.66;;;30.06;36.81
10638;BME280;47007;49.252;8.904;2022-07-04T13:09:09;99960.97;;;30.51;37.27
10638;BME280;47007;49.252;8.904;2022-07-04T13:11:36;99958.28;;;30.37;35.84
10638;BME280;47007;49.252;8.904;2022-07-04T13:14:21;99931.50;;;30.25;36.11
10638;BME280;47007;49.252;8.904;2022-07-04T13:16:48;99961.13;;;30.10;36.12
10638;BME280;47007;49.252;8.904;2022-07-04T13:19:15;99940.09;;;29.47;35.45
10638;BME280;47007;49.252;8.904;2022-07-04T13:21:45;99946.13;;;29.57;38.00
10638;BME280;47007;49.252;8.904;2022-07-04T13:24:13;99949.97;;;29.70;37.72
10638;BME280;47007;49.252;8.904;2022-07-04T13:26:40;99912.25;;;29.31;37.40
10638;BME280;47007;49.252;8.904;2022-07-04T13:29:08;99947.63;;;29.77;37.87